Accueil
METAR-TAF:

METAR-TAF

Aéroports :

Aéroport de Kangiqsualujjuaq

Kangiqsualujjuaq, Québec, Canada

latitude: 58-43N, longitude: 065-59W, altitude: 60 m

Observation

Le bulletin a été fait il y a 25 minutes, à 21:00 UTC
Vent 6 kt de est/nord-est
Température -4°C
Humidité 74%
Pression 1014 hPa
Visibilité: 24.1 km
Nuages épars à une hauteur de 4000 ft
Nuages fragmentés à une hauteur de 4200 ft
Ciel couvert à une hauteur de 4800 ft
faibles averses de neige

METAR: CYLU 242100Z 06006KT 15SM -SHSN SCT040 BKN042 OVC048 M04/M08 A2993 RMK SC3SC3SC2 LAST STFD OBS/NEXT 251200UTC SLP142

Heure: 17:25 (21:25 UTC)


TAF: absent

Observations et prévisions météorologiques de plus de 4000 aéroports (messages METAR et TAF).

Les stations disponibles sont représentées par des disques jaunes et rouges sur la carte.

Passer la souris dessus pour voir le nom de la station.

Cliquer dessus pour voir les observations et prévisions météorologiques.

Pour changer de carte: cliquez sur les boutons verts avec une croix noire pour zoomer, sur le bouton vert avec un tiret pour effectuer un zoom arrière, ou sur les flèches vertes pour les cartes adjacentes.


METAR-TAF: